CMA CGM Turquoise — A8RB5 — position and weather

sailwx.info

Track history (hours):
 
Tides and Currents Weather Stations Pressure Air Temp Water Temp Dewpoint Dewpoint Depression Visibility Wind Speed Wind Dir Waves Ship Positions

CMA CGM Turquoise

Last reported at 2015-Sep-01 16:15 UTC. Time now 2015-Sep-01 22:21 UTC.
Position N 01°22' E 103°33'.

Length 259 m; draft 12.1 m.

Type: Ship. MMSI: 636014059.

Date/timePositionNaut miles runAvg speedWind from/ knotsBaromVisibWave heightAir tempDewpointWater temp
2015-Sep-01 16:15N 01°22' E 103°33'0 0.0
2015-Sep-01 06:18N 01°22' E 103°33'0 0.1
2015-Aug-31 23:30N 01°21' E 103°33'7 1.0
2015-Aug-31 16:04N 01°14' E 103°32'4 6.7
2015-Aug-31 15:33N 01°13' E 103°35'1212.0
2015-Aug-31 14:33N 01°10' E 103°46'1514.4
2015-Aug-31 13:33N 01°15' E 103°60'1514.1
2015-Aug-31 12:30N 01°18' E 104°14'  
2015-Aug-27 03:33N 22°08' E 113°51'1413.8
2015-Aug-27 02:33N 22°22' E 113°47'1413.7
2015-Aug-27 01:33N 22°35' E 113°43'3 0.2
2015-Aug-26 09:31N 22°38' E 113°41'9 9.7
2015-Aug-26 08:32N 22°29' E 113°45'1313.4
2015-Aug-26 07:33N 22°16' E 113°48'17 2.4
2015-Aug-26 00:28N 22°16' E 114°06'1212.3
2015-Aug-25 23:28N 22°22' E 113°55'10 1.0
2015-Aug-25 13:17N 22°20' E 114°05'16 9.3
2015-Aug-25 11:33N 22°09' E 114°17'1413.5
2015-Aug-25 10:29N 22°08' E 114°33'21415.3
2015-Aug-24 20:29N 23°28' E 118°08'1815.7
2015-Aug-24 19:18N 23°41' E 118°23'40815.1
2015-Aug-23 16:15N 29°24' E 122°31'1216.4
2015-Aug-23 15:30N 29°36' E 122°29'1714.4
2015-Aug-23 14:20N 29°48' E 122°15'1012.5
2015-Aug-23 13:30N 29°55' E 122°07'1513.0
2015-Aug-23 12:21N 29°58' E 121°50'2 0.2
2015-Aug-23 01:29N 29°59' E 121°50'3 2.0
2015-Aug-23 00:10N 29°58' E 121°52'5 7.8
2015-Aug-22 23:33N 29°59' E 121°58'1512.5
2015-Aug-22 22:21N 29°51' E 122°12'10 5.5
2015-Aug-22 20:30N 29°46' E 122°23'0 0.0
2015-Aug-22 19:23N 29°46' E 122°23'0 0.0
2015-Aug-22 16:19N 29°46' E 122°23'  
Track history (hours):
 
Tides and Currents Weather Stations Pressure Air Temp Water Temp Dewpoint Dewpoint Depression Visibility Wind Speed Wind Dir Waves Ship Positions

CMA CGM Turquoise

Last reported at 2015-Sep-01 16:15 UTC. Time now 2015-Sep-01 22:21 UTC.
Position N 01°22' E 103°33'.

Length 259 m; draft 12.1 m.

Type: Ship. MMSI: 636014059.

Date/timePositionNaut miles runAvg speedWind from/ knotsBaromVisibWave heightAir tempDewpointWater temp
2015-Sep-01 16:15N 01°22' E 103°33'0 0.0
2015-Sep-01 06:18N 01°22' E 103°33'0 0.1
2015-Aug-31 23:30N 01°21' E 103°33'7 1.0
2015-Aug-31 16:04N 01°14' E 103°32'4 6.7
2015-Aug-31 15:33N 01°13' E 103°35'1212.0
2015-Aug-31 14:33N 01°10' E 103°46'1514.4
2015-Aug-31 13:33N 01°15' E 103°60'1514.1
2015-Aug-31 12:30N 01°18' E 104°14'  
2015-Aug-27 03:33N 22°08' E 113°51'1413.8
2015-Aug-27 02:33N 22°22' E 113°47'1413.7
2015-Aug-27 01:33N 22°35' E 113°43'3 0.2
2015-Aug-26 09:31N 22°38' E 113°41'9 9.7
2015-Aug-26 08:32N 22°29' E 113°45'1313.4
2015-Aug-26 07:33N 22°16' E 113°48'17 2.4
2015-Aug-26 00:28N 22°16' E 114°06'1212.3
2015-Aug-25 23:28N 22°22' E 113°55'10 1.0
2015-Aug-25 13:17N 22°20' E 114°05'16 9.3
2015-Aug-25 11:33N 22°09' E 114°17'1413.5
2015-Aug-25 10:29N 22°08' E 114°33'21415.3
2015-Aug-24 20:29N 23°28' E 118°08'1815.7
2015-Aug-24 19:18N 23°41' E 118°23'40815.1
2015-Aug-23 16:15N 29°24' E 122°31'1216.4
2015-Aug-23 15:30N 29°36' E 122°29'1714.4
2015-Aug-23 14:20N 29°48' E 122°15'1012.5
2015-Aug-23 13:30N 29°55' E 122°07'1513.0
2015-Aug-23 12:21N 29°58' E 121°50'2 0.2
2015-Aug-23 01:29N 29°59' E 121°50'3 2.0
2015-Aug-23 00:10N 29°58' E 121°52'5 7.8
2015-Aug-22 23:33N 29°59' E 121°58'1512.5
2015-Aug-22 22:21N 29°51' E 122°12'10 5.5
2015-Aug-22 20:30N 29°46' E 122°23'0 0.0
2015-Aug-22 19:23N 29°46' E 122°23'0 0.0
2015-Aug-22 16:19N 29°46' E 122°23'  

Dump ship's entire track history